sensor_id;sensor_type;location;lat;lon;timestamp;pressure;altitude;pressure_sealevel;temperature;humidity
12349;BME280;5974;42.710;27.258;2024-02-26T00:00:14;99940.81;;;7.91;100.00
12349;BME280;5974;42.710;27.258;2024-02-26T00:02:41;99933.84;;;7.91;100.00
12349;BME280;5974;42.710;27.258;2024-02-26T00:05:09;99940.09;;;7.59;100.00
12349;BME280;5974;42.710;27.258;2024-02-26T00:07:36;99939.47;;;7.51;100.00
12349;BME280;5974;42.710;27.258;2024-02-26T00:10:05;99939.72;;;7.44;100.00
12349;BME280;5974;42.710;27.258;2024-02-26T00:12:32;99938.53;;;7.26;100.00
12349;BME280;5974;42.710;27.258;2024-02-26T00:14:58;99929.78;;;7.29;100.00
12349;BME280;5974;42.710;27.258;2024-02-26T00:17:26;99928.78;;;7.33;100.00
12349;BME280;5974;42.710;27.258;2024-02-26T00:19:52;99931.38;;;7.33;100.00
12349;BME280;5974;42.710;27.258;2024-02-26T00:22:20;99928.97;;;7.27;100.00
12349;BME280;5974;42.710;27.258;2024-02-26T00:24:48;99929.91;;;7.24;100.00
12349;BME280;5974;42.710;27.258;2024-02-26T00:27:15;99935.69;;;7.34;100.00
12349;BME280;5974;42.710;27.258;2024-02-26T00:29:41;99937.16;;;7.42;100.00
12349;BME280;5974;42.710;27.258;2024-02-26T00:32:08;99933.00;;;7.37;100.00
12349;BME280;5974;42.710;27.258;2024-02-26T00:34:35;99927.13;;;7.30;100.00
12349;BME280;5974;42.710;27.258;2024-02-26T00:37:02;99924.03;;;7.47;100.00
12349;BME280;5974;42.710;27.258;2024-02-26T00:39:30;99919.03;;;7.41;100.00
12349;BME280;5974;42.710;27.258;2024-02-26T00:41:57;99917.78;;;7.25;100.00
12349;BME280;5974;42.710;27.258;2024-02-26T00:44:23;99919.69;;;7.20;100.00
12349;BME280;5974;42.710;27.258;2024-02-26T00:46:50;99914.22;;;7.27;100.00
12349;BME280;5974;42.710;27.258;2024-02-26T00:49:17;99912.50;;;6.98;100.00
12349;BME280;5974;42.710;27.258;2024-02-26T00:51:43;99908.41;;;6.90;100.00
12349;BME280;5974;42.710;27.258;2024-02-26T00:54:10;99905.88;;;6.88;100.00
12349;BME280;5974;42.710;27.258;2024-02-26T00:56:38;99898.09;;;6.88;100.00
12349;BME280;5974;42.710;27.258;2024-02-26T00:59:05;99906.41;;;6.99;100.00
12349;BME280;5974;42.710;27.258;2024-02-26T01:01:32;99897.16;;;6.89;100.00
12349;BME280;5974;42.710;27.258;2024-02-26T01:03:58;99896.63;;;6.78;100.00
12349;BME280;5974;42.710;27.258;2024-02-26T01:06:25;99890.91;;;6.67;100.00
12349;BME280;5974;42.710;27.258;2024-02-26T01:08:52;99893.72;;;6.60;100.00
12349;BME280;5974;42.710;27.258;2024-02-26T01:11:19;99892.16;;;6.52;100.00
12349;BME280;5974;42.710;27.258;2024-02-26T01:13:47;99888.50;;;6.60;100.00
12349;BME280;5974;42.710;27.258;2024-02-26T01:16:13;99890.94;;;6.66;100.00
12349;BME280;5974;42.710;27.258;2024-02-26T01:18:40;99887.41;;;6.68;100.00
12349;BME280;5974;42.710;27.258;2024-02-26T01:21:07;99880.91;;;6.53;100.00
12349;BME280;5974;42.710;27.258;2024-02-26T01:23:34;99880.28;;;6.44;100.00
12349;BME280;5974;42.710;27.258;2024-02-26T01:26:01;99880.47;;;6.38;100.00
12349;BME280;5974;42.710;27.258;2024-02-26T01:28:30;99878.13;;;6.29;100.00
12349;BME280;5974;42.710;27.258;2024-02-26T01:30:58;99877.34;;;6.25;100.00
12349;BME280;5974;42.710;27.258;2024-02-26T01:33:25;99882.44;;;6.30;100.00
12349;BME280;5974;42.710;27.258;2024-02-26T01:35:52;99882.25;;;6.36;100.00
12349;BME280;5974;42.710;27.258;2024-02-26T01:38:19;99875.34;;;6.35;100.00
12349;BME280;5974;42.710;27.258;2024-02-26T01:40:46;99876.91;;;6.42;100.00
12349;BME280;5974;42.710;27.258;2024-02-26T01:43:13;99871.72;;;6.42;100.00
12349;BME280;5974;42.710;27.258;2024-02-26T01:45:39;99880.03;;;6.53;100.00
12349;BME280;5974;42.710;27.258;2024-02-26T01:48:07;99876.84;;;6.43;100.00
12349;BME280;5974;42.710;27.258;2024-02-26T01:50:36;99875.97;;;6.43;100.00
12349;BME280;5974;42.710;27.258;2024-02-26T01:53:03;99870.97;;;5.71;100.00
12349;BME280;5974;42.710;27.258;2024-02-26T01:55:31;99853.38;;;6.16;100.00
12349;BME280;5974;42.710;27.258;2024-02-26T01:57:58;99856.88;;;6.15;100.00
12349;BME280;5974;42.710;27.258;2024-02-26T02:00:25;99864.16;;;6.02;100.00
12349;BME280;5974;42.710;27.258;2024-02-26T02:02:53;99863.28;;;6.02;100.00
12349;BME280;5974;42.710;27.258;2024-02-26T02:05:22;99855.28;;;6.09;100.00
12349;BME280;5974;42.710;27.258;2024-02-26T02:07:49;99857.97;;;6.06;100.00
12349;BME280;5974;42.710;27.258;2024-02-26T02:10:16;99858.41;;;6.22;100.00
12349;BME280;5974;42.710;27.258;2024-02-26T02:12:48;99853.88;;;5.97;100.00
12349;BME280;5974;42.710;27.258;2024-02-26T02:15:15;99861.78;;;5.93;100.00
12349;BME280;5974;42.710;27.258;2024-02-26T02:17:41;99850.75;;;6.17;100.00
12349;BME280;5974;42.710;27.258;2024-02-26T02:20:09;99852.16;;;6.29;100.00
12349;BME280;5974;42.710;27.258;2024-02-26T02:22:37;99851.38;;;6.27;100.00
12349;BME280;5974;42.710;27.258;2024-02-26T02:25:05;99849.47;;;6.32;100.00
12349;BME280;5974;42.710;27.258;2024-02-26T02:27:32;99848.69;;;5.27;100.00
12349;BME280;5974;42.710;27.258;2024-02-26T02:29:59;99849.75;;;5.20;100.00
12349;BME280;5974;42.710;27.258;2024-02-26T02:32:26;99850.63;;;5.19;100.00
12349;BME280;5974;42.710;27.258;2024-02-26T02:34:54;99848.34;;;5.76;100.00
12349;BME280;5974;42.710;27.258;2024-02-26T02:37:21;99844.59;;;5.89;100.00
12349;BME280;5974;42.710;27.258;2024-02-26T02:39:49;99846.16;;;5.94;100.00
12349;BME280;5974;42.710;27.258;2024-02-26T02:42:15;99851.19;;;6.00;100.00
12349;BME280;5974;42.710;27.258;2024-02-26T02:44:44;99850.88;;;6.13;100.00
12349;BME280;5974;42.710;27.258;2024-02-26T02:47:10;99852.50;;;6.17;100.00
12349;BME280;5974;42.710;27.258;2024-02-26T02:49:37;99859.25;;;6.22;100.00
12349;BME280;5974;42.710;27.258;2024-02-26T02:52:04;99853.03;;;6.29;100.00
12349;BME280;5974;42.710;27.258;2024-02-26T02:54:31;99852.00;;;6.35;100.00
12349;BME280;5974;42.710;27.258;2024-02-26T02:56:59;99851.38;;;6.27;100.00
12349;BME280;5974;42.710;27.258;2024-02-26T02:59:26;99853.03;;;6.29;100.00
12349;BME280;5974;42.710;27.258;2024-02-26T03:01:53;99850.53;;;6.25;100.00
12349;BME280;5974;42.710;27.258;2024-02-26T03:04:20;99847.38;;;6.14;100.00
12349;BME280;5974;42.710;27.258;2024-02-26T03:06:46;99846.66;;;6.09;100.00
12349;BME280;5974;42.710;27.258;2024-02-26T03:09:13;99845.72;;;5.43;100.00
12349;BME280;5974;42.710;27.258;2024-02-26T03:11:40;99846.91;;;5.66;100.00
12349;BME280;5974;42.710;27.258;2024-02-26T03:14:08;99848.72;;;5.62;100.00
12349;BME280;5974;42.710;27.258;2024-02-26T03:16:35;99861.69;;;5.61;100.00
12349;BME280;5974;42.710;27.258;2024-02-26T03:19:02;99855.44;;;5.69;100.00
12349;BME280;5974;42.710;27.258;2024-02-26T03:21:29;99858.16;;;5.65;100.00
12349;BME280;5974;42.710;27.258;2024-02-26T03:23:56;99855.66;;;5.60;100.00
12349;BME280;5974;42.710;27.258;2024-02-26T03:26:22;99853.06;;;5.60;100.00
12349;BME280;5974;42.710;27.258;2024-02-26T03:28:49;99860.91;;;5.59;100.00
12349;BME280;5974;42.710;27.258;2024-02-26T03:31:17;99860.13;;;5.55;100.00
12349;BME280;5974;42.710;27.258;2024-02-26T03:33:45;99861.41;;;5.37;100.00
12349;BME280;5974;42.710;27.258;2024-02-26T03:36:12;99867.13;;;5.15;100.00
12349;BME280;5974;42.710;27.258;2024-02-26T03:38:38;99865.41;;;5.14;100.00
12349;BME280;5974;42.710;27.258;2024-02-26T03:41:05;99862.41;;;4.95;100.00
12349;BME280;5974;42.710;27.258;2024-02-26T03:43:33;99866.25;;;4.76;100.00
12349;BME280;5974;42.710;27.258;2024-02-26T03:46:00;99865.03;;;4.52;100.00
12349;BME280;5974;42.710;27.258;2024-02-26T03:48:29;99868.00;;;4.75;100.00
12349;BME280;5974;42.710;27.258;2024-02-26T03:50:55;99868.81;;;4.77;100.00
12349;BME280;5974;42.710;27.258;2024-02-26T03:53:22;99872.56;;;5.03;100.00
12349;BME280;5974;42.710;27.258;2024-02-26T03:55:49;99871.22;;;5.25;100.00
12349;BME280;5974;42.710;27.258;2024-02-26T03:58:17;99878.28;;;5.18;100.00
12349;BME280;5974;42.710;27.258;2024-02-26T04:00:44;99873.38;;;5.43;100.00
12349;BME280;5974;42.710;27.258;2024-02-26T04:03:12;99867.94;;;5.54;100.00
12349;BME280;5974;42.710;27.258;2024-02-26T04:05:40;99862.63;;;5.58;100.00
12349;BME280;5974;42.710;27.258;2024-02-26T04:08:07;99862.47;;;5.66;100.00
12349;BME280;5974;42.710;27.258;2024-02-26T04:10:36;99861.94;;;5.52;100.00
12349;BME280;5974;42.710;27.258;2024-02-26T04:13:04;99862.75;;;5.54;100.00
12349;BME280;5974;42.710;27.258;2024-02-26T04:15:31;99866.88;;;5.61;100.00
12349;BME280;5974;42.710;27.258;2024-02-26T04:17:58;99864.22;;;5.64;100.00
12349;BME280;5974;42.710;27.258;2024-02-26T04:20:25;99866.66;;;5.70;100.00
12349;BME280;5974;42.710;27.258;2024-02-26T04:22:53;99869.16;;;5.74;100.00
12349;BME280;5974;42.710;27.258;2024-02-26T04:25:19;99863.72;;;5.83;100.00
12349;BME280;5974;42.710;27.258;2024-02-26T04:27:48;99855.91;;;5.85;100.00
12349;BME280;5974;42.710;27.258;2024-02-26T04:30:14;99859.88;;;5.66;100.00
12349;BME280;5974;42.710;27.258;2024-02-26T04:32:42;99859.88;;;5.66;100.00
12349;BME280;5974;42.710;27.258;2024-02-26T04:35:09;99870.91;;;5.72;100.00
12349;BME280;5974;42.710;27.258;2024-02-26T04:37:36;99867.00;;;5.91;100.00
12349;BME280;5974;42.710;27.258;2024-02-26T04:40:06;99866.13;;;5.92;100.00
12349;BME280;5974;42.710;27.258;2024-02-26T04:42:33;99862.00;;;5.84;100.00
12349;BME280;5974;42.710;27.258;2024-02-26T04:45:00;99861.53;;;5.68;100.00
12349;BME280;5974;42.710;27.258;2024-02-26T04:47:26;99859.72;;;5.70;100.00
12349;BME280;5974;42.710;27.258;2024-02-26T04:49:53;99869.59;;;5.56;100.00
12349;BME280;5974;42.710;27.258;2024-02-26T04:52:20;99870.34;;;5.61;100.00
12349;BME280;5974;42.710;27.258;2024-02-26T04:54:46;99876.59;;;5.53;100.00
12349;BME280;5974;42.710;27.258;2024-02-26T04:57:14;99874.50;;;4.95;100.00
12349;BME280;5974;42.710;27.258;2024-02-26T04:59:43;99869.63;;;5.55;100.00
12349;BME280;5974;42.710;27.258;2024-02-26T05:02:11;99876.56;;;5.89;100.00
12349;BME280;5974;42.710;27.258;2024-02-26T05:04:38;99871.78;;;6.07;100.00
12349;BME280;5974;42.710;27.258;2024-02-26T05:07:04;99884.19;;;6.28;100.00
12349;BME280;5974;42.710;27.258;2024-02-26T05:09:31;99879.53;;;6.40;100.00
12349;BME280;5974;42.710;27.258;2024-02-26T05:11:58;99879.06;;;6.57;100.00
12349;BME280;5974;42.710;27.258;2024-02-26T05:14:26;99875.34;;;6.66;100.00
12349;BME280;5974;42.710;27.258;2024-02-26T05:16:53;99881.56;;;6.60;100.00
12349;BME280;5974;42.710;27.258;2024-02-26T05:19:20;99877.47;;;6.82;100.00
12349;BME280;5974;42.710;27.258;2024-02-26T05:21:46;99879.47;;;6.73;100.00
12349;BME280;5974;42.710;27.258;2024-02-26T05:24:15;99879.63;;;6.97;100.00
12349;BME280;5974;42.710;27.258;2024-02-26T05:26:42;99880.03;;;7.12;100.00
12349;BME280;5974;42.710;27.258;2024-02-26T05:29:09;99887.31;;;6.40;100.00
12349;BME280;5974;42.710;27.258;2024-02-26T05:31:37;99895.25;;;6.96;100.00
12349;BME280;5974;42.710;27.258;2024-02-26T05:34:04;99892.38;;;6.76;100.00
12349;BME280;5974;42.710;27.258;2024-02-26T05:36:31;99890.06;;;7.24;100.00
12349;BME280;5974;42.710;27.258;2024-02-26T05:38:58;99893.31;;;7.02;100.00
12349;BME280;5974;42.710;27.258;2024-02-26T05:41:25;99897.34;;;7.68;100.00
12349;BME280;5974;42.710;27.258;2024-02-26T05:43:52;99896.88;;;8.08;100.00
12349;BME280;5974;42.710;27.258;2024-02-26T05:46:19;99905.19;;;7.67;100.00
12349;BME280;5974;42.710;27.258;2024-02-26T05:48:50;99897.00;;;8.03;100.00
12349;BME280;5974;42.710;27.258;2024-02-26T05:51:17;99903.38;;;8.21;100.00
12349;BME280;5974;42.710;27.258;2024-02-26T05:53:44;99905.66;;;8.55;100.00
12349;BME280;5974;42.710;27.258;2024-02-26T05:56:12;99899.91;;;8.93;100.00
12349;BME280;5974;42.710;27.258;2024-02-26T05:58:38;99894.00;;;8.40;100.00
12349;BME280;5974;42.710;27.258;2024-02-26T06:01:05;99903.91;;;9.02;100.00
12349;BME280;5974;42.710;27.258;2024-02-26T06:03:32;99897.50;;;9.32;100.00
12349;BME280;5974;42.710;27.258;2024-02-26T06:06:00;99894.56;;;9.41;100.00
12349;BME280;5974;42.710;27.258;2024-02-26T06:08:27;99891.94;;;9.63;100.00
12349;BME280;5974;42.710;27.258;2024-02-26T06:10:54;99899.34;;;8.85;100.00
12349;BME280;5974;42.710;27.258;2024-02-26T06:13:20;99905.44;;;8.61;100.00
12349;BME280;5974;42.710;27.258;2024-02-26T06:15:47;99903.63;;;9.09;100.00
12349;BME280;5974;42.710;27.258;2024-02-26T06:18:14;99905.78;;;9.87;100.00
12349;BME280;5974;42.710;27.258;2024-02-26T06:20:41;99900.03;;;10.20;100.00
12349;BME280;5974;42.710;27.258;2024-02-26T06:23:09;99903.91;;;10.51;100.00
12349;BME280;5974;42.710;27.258;2024-02-26T06:25:36;99900.63;;;10.66;100.00
12349;BME280;5974;42.710;27.258;2024-02-26T06:28:03;99896.22;;;10.48;100.00
12349;BME280;5974;42.710;27.258;2024-02-26T06:30:30;99898.31;;;10.40;100.00
12349;BME280;5974;42.710;27.258;2024-02-26T06:32:57;99892.56;;;10.31;100.00
12349;BME280;5974;42.710;27.258;2024-02-26T06:35:23;99887.66;;;10.44;100.00
12349;BME280;5974;42.710;27.258;2024-02-26T06:37:50;99907.38;;;9.69;100.00
12349;BME280;5974;42.710;27.258;2024-02-26T06:40:19;99914.00;;;9.56;100.00
12349;BME280;5974;42.710;27.258;2024-02-26T06:42:46;99910.44;;;10.61;100.00
12349;BME280;5974;42.710;27.258;2024-02-26T06:45:13;99904.47;;;11.15;100.00
12349;BME280;5974;42.710;27.258;2024-02-26T06:47:40;99904.28;;;11.38;100.00
12349;BME280;5974;42.710;27.258;2024-02-26T06:50:08;99900.00;;;11.35;100.00
12349;BME280;5974;42.710;27.258;2024-02-26T06:52:35;99909.75;;;11.51;100.00
12349;BME280;5974;42.710;27.258;2024-02-26T06:55:02;99904.78;;;11.09;100.00
12349;BME280;5974;42.710;27.258;2024-02-26T06:57:31;99906.47;;;11.83;100.00
12349;BME280;5974;42.710;27.258;2024-02-26T06:59:58;99906.59;;;11.44;100.00
12349;BME280;5974;42.710;27.258;2024-02-26T07:02:25;99908.66;;;11.37;100.00
12349;BME280;5974;42.710;27.258;2024-02-26T07:04:51;99904.75;;;10.90;100.00
12349;BME280;5974;42.710;27.258;2024-02-26T07:07:18;99900.69;;;11.58;100.00
12349;BME280;5974;42.710;27.258;2024-02-26T07:09:45;99905.56;;;12.85;100.00
12349;BME280;5974;42.710;27.258;2024-02-26T07:12:12;99895.59;;;12.25;100.00
12349;BME280;5974;42.710;27.258;2024-02-26T07:14:40;99902.88;;;12.03;100.00
12349;BME280;5974;42.710;27.258;2024-02-26T07:17:07;99892.22;;;11.53;100.00
12349;BME280;5974;42.710;27.258;2024-02-26T07:19:34;99900.31;;;12.35;100.00
12349;BME280;5974;42.710;27.258;2024-02-26T07:22:01;99911.44;;;12.73;100.00
12349;BME280;5974;42.710;27.258;2024-02-26T07:24:27;99884.84;;;12.64;100.00
12349;BME280;5974;42.710;27.258;2024-02-26T07:26:54;99905.91;;;12.95;100.00
12349;BME280;5974;42.710;27.258;2024-02-26T07:29:21;99899.94;;;13.40;100.00
12349;BME280;5974;42.710;27.258;2024-02-26T07:31:49;99900.69;;;13.73;100.00
12349;BME280;5974;42.710;27.258;2024-02-26T07:34:16;99900.78;;;13.72;100.00
12349;BME280;5974;42.710;27.258;2024-02-26T07:36:42;99898.34;;;13.98;100.00
12349;BME280;5974;42.710;27.258;2024-02-26T07:39:10;99898.78;;;14.64;100.00
12349;BME280;5974;42.710;27.258;2024-02-26T07:41:36;99905.03;;;14.04;100.00
12349;BME280;5974;42.710;27.258;2024-02-26T07:44:04;99895.69;;;14.86;100.00
12349;BME280;5974;42.710;27.258;2024-02-26T07:46:31;99899.63;;;14.93;100.00
12349;BME280;5974;42.710;27.258;2024-02-26T07:48:59;99900.66;;;15.05;100.00
12349;BME280;5974;42.710;27.258;2024-02-26T07:51:26;99900.47;;;14.94;100.00
12349;BME280;5974;42.710;27.258;2024-02-26T07:53:52;99894.03;;;15.40;100.00
12349;BME280;5974;42.710;27.258;2024-02-26T07:56:19;99892.97;;;15.43;100.00
12349;BME280;5974;42.710;27.258;2024-02-26T07:58:46;99891.63;;;16.55;100.00
12349;BME280;5974;42.710;27.258;2024-02-26T08:01:13;99886.88;;;15.56;100.00
12349;BME280;5974;42.710;27.258;2024-02-26T08:03:40;99880.75;;;15.56;100.00
12349;BME280;5974;42.710;27.258;2024-02-26T08:06:09;99887.50;;;15.19;100.00
12349;BME280;5974;42.710;27.258;2024-02-26T08:08:36;99890.34;;;15.84;100.00
12349;BME280;5974;42.710;27.258;2024-02-26T08:11:03;99884.16;;;15.30;100.00
12349;BME280;5974;42.710;27.258;2024-02-26T08:13:29;99889.16;;;15.34;100.00
12349;BME280;5974;42.710;27.258;2024-02-26T08:15:56;99882.22;;;15.60;100.00
12349;BME280;5974;42.710;27.258;2024-02-26T08:18:24;99886.34;;;15.64;100.00
12349;BME280;5974;42.710;27.258;2024-02-26T08:20:51;99888.97;;;15.91;100.00
12349;BME280;5974;42.710;27.258;2024-02-26T08:23:19;99893.66;;;15.32;100.00
12349;BME280;5974;42.710;27.258;2024-02-26T08:25:46;99892.84;;;14.89;100.00
12349;BME280;5974;42.710;27.258;2024-02-26T08:28:13;99895.59;;;14.88;100.00
12349;BME280;5974;42.710;27.258;2024-02-26T08:30:40;99894.63;;;15.17;100.00
12349;BME280;5974;42.710;27.258;2024-02-26T08:33:06;99893.53;;;14.79;100.00
12349;BME280;5974;42.710;27.258;2024-02-26T08:35:33;99902.00;;;14.70;100.00
12349;BME280;5974;42.710;27.258;2024-02-26T08:38:00;99901.31;;;14.80;100.00
12349;BME280;5974;42.710;27.258;2024-02-26T08:40:28;99898.34;;;15.55;100.00
12349;BME280;5974;42.710;27.258;2024-02-26T08:42:55;99895.25;;;15.35;100.00
12349;BME280;5974;42.710;27.258;2024-02-26T08:45:21;99889.13;;;15.75;100.00
12349;BME280;5974;42.710;27.258;2024-02-26T08:47:48;99888.34;;;16.00;100.00
12349;BME280;5974;42.710;27.258;2024-02-26T08:50:15;99891.91;;;15.18;100.00
12349;BME280;5974;42.710;27.258;2024-02-26T08:52:42;99884.09;;;16.24;100.00
12349;BME280;5974;42.710;27.258;2024-02-26T08:55:09;99890.88;;;17.04;100.00
12349;BME280;5974;42.710;27.258;2024-02-26T08:57:37;99886.47;;;17.64;100.00
12349;BME280;5974;42.710;27.258;2024-02-26T09:00:05;99890.88;;;17.40;100.00
12349;BME280;5974;42.710;27.258;2024-02-26T09:02:32;99881.75;;;18.61;100.00
12349;BME280;5974;42.710;27.258;2024-02-26T09:04:59;99877.59;;;18.00;99.69
12349;BME280;5974;42.710;27.258;2024-02-26T09:07:26;99880.81;;;18.51;100.00
12349;BME280;5974;42.710;27.258;2024-02-26T09:09:52;99881.44;;;18.31;100.00
12349;BME280;5974;42.710;27.258;2024-02-26T09:12:19;99879.34;;;18.58;98.31
12349;BME280;5974;42.710;27.258;2024-02-26T09:14:47;99880.84;;;18.73;98.22
12349;BME280;5974;42.710;27.258;2024-02-26T09:17:14;99877.31;;;18.62;96.28
12349;BME280;5974;42.710;27.258;2024-02-26T09:19:41;99874.94;;;18.24;98.74
12349;BME280;5974;42.710;27.258;2024-02-26T09:22:09;99878.63;;;18.10;98.79
12349;BME280;5974;42.710;27.258;2024-02-26T09:24:36;99879.88;;;18.85;98.03
12349;BME280;5974;42.710;27.258;2024-02-26T09:27:03;99878.78;;;18.66;99.99
12349;BME280;5974;42.710;27.258;2024-02-26T09:29:30;99867.50;;;18.40;100.00
12349;BME280;5974;42.710;27.258;2024-02-26T09:31:58;99872.44;;;18.45;100.00
12349;BME280;5974;42.710;27.258;2024-02-26T09:34:26;99874.69;;;19.06;100.00
12349;BME280;5974;42.710;27.258;2024-02-26T09:36:52;99873.66;;;18.06;100.00
12349;BME280;5974;42.710;27.258;2024-02-26T09:39:19;99875.03;;;18.68;100.00
12349;BME280;5974;42.710;27.258;2024-02-26T09:41:47;99866.16;;;18.91;99.82
12349;BME280;5974;42.710;27.258;2024-02-26T09:44:17;99864.50;;;18.45;100.00
12349;BME280;5974;42.710;27.258;2024-02-26T09:46:45;99859.03;;;18.81;100.00
12349;BME280;5974;42.710;27.258;2024-02-26T09:49:14;99856.41;;;18.24;100.00
12349;BME280;5974;42.710;27.258;2024-02-26T09:51:42;99858.34;;;18.33;100.00
12349;BME280;5974;42.710;27.258;2024-02-26T09:54:09;99854.56;;;18.92;100.00
12349;BME280;5974;42.710;27.258;2024-02-26T09:56:37;99854.69;;;19.13;100.00
12349;BME280;5974;42.710;27.258;2024-02-26T09:59:06;99846.81;;;19.34;100.00
12349;BME280;5974;42.710;27.258;2024-02-26T10:01:37;99841.44;;;19.67;99.44
12349;BME280;5974;42.710;27.258;2024-02-26T10:04:06;99843.72;;;19.92;97.87
12349;BME280;5974;42.710;27.258;2024-02-26T10:06:34;99838.31;;;18.86;100.00
12349;BME280;5974;42.710;27.258;2024-02-26T10:09:03;99827.78;;;18.18;100.00
12349;BME280;5974;42.710;27.258;2024-02-26T10:11:32;99824.03;;;17.74;100.00
12349;BME280;5974;42.710;27.258;2024-02-26T10:13:59;99824.41;;;18.38;100.00
12349;BME280;5974;42.710;27.258;2024-02-26T10:16:26;99820.41;;;18.21;100.00
12349;BME280;5974;42.710;27.258;2024-02-26T10:18:53;99815.19;;;18.77;100.00
12349;BME280;5974;42.710;27.258;2024-02-26T10:21:21;99825.66;;;18.56;100.00
12349;BME280;5974;42.710;27.258;2024-02-26T10:23:49;99815.53;;;18.83;100.00
12349;BME280;5974;42.710;27.258;2024-02-26T10:26:16;99802.75;;;18.44;100.00
12349;BME280;5974;42.710;27.258;2024-02-26T10:28:44;99805.75;;;18.28;100.00
12349;BME280;5974;42.710;27.258;2024-02-26T10:31:13;99803.22;;;18.16;100.00
12349;BME280;5974;42.710;27.258;2024-02-26T10:33:41;99797.44;;;18.22;100.00
12349;BME280;5974;42.710;27.258;2024-02-26T10:36:09;99789.53;;;18.44;100.00
12349;BME280;5974;42.710;27.258;2024-02-26T10:38:36;99795.28;;;18.16;100.00
12349;BME280;5974;42.710;27.258;2024-02-26T10:41:06;99802.00;;;18.09;100.00
12349;BME280;5974;42.710;27.258;2024-02-26T10:43:33;99792.56;;;17.94;100.00
12349;BME280;5974;42.710;27.258;2024-02-26T10:46:00;99788.19;;;18.27;100.00
12349;BME280;5974;42.710;27.258;2024-02-26T10:48:27;99785.06;;;18.33;100.00
12349;BME280;5974;42.710;27.258;2024-02-26T10:50:54;99789.19;;;18.49;100.00
12349;BME280;5974;42.710;27.258;2024-02-26T10:53:23;99789.19;;;18.82;100.00
12349;BME280;5974;42.710;27.258;2024-02-26T10:55:53;99784.88;;;19.24;100.00
12349;BME280;5974;42.710;27.258;2024-02-26T10:58:23;99790.31;;;19.22;100.00
12349;BME280;5974;42.710;27.258;2024-02-26T11:00:51;99777.63;;;19.37;100.00
12349;BME280;5974;42.710;27.258;2024-02-26T11:03:19;99776.88;;;19.46;100.00
12349;BME280;5974;42.710;27.258;2024-02-26T11:05:47;99763.13;;;20.14;97.75
12349;BME280;5974;42.710;27.258;2024-02-26T11:08:15;99780.13;;;20.53;94.12
12349;BME280;5974;42.710;27.258;2024-02-26T11:10:42;99769.53;;;20.32;95.87
12349;BME280;5974;42.710;27.258;2024-02-26T11:13:11;99777.63;;;20.10;95.72
12349;BME280;5974;42.710;27.258;2024-02-26T11:15:41;99778.66;;;19.98;93.79
12349;BME280;5974;42.710;27.258;2024-02-26T11:18:10;99770.44;;;20.01;94.46
12349;BME280;5974;42.710;27.258;2024-02-26T11:20:40;99771.28;;;18.63;97.54
12349;BME280;5974;42.710;27.258;2024-02-26T11:23:08;99777.03;;;18.68;98.86
12349;BME280;5974;42.710;27.258;2024-02-26T11:25:35;99771.13;;;18.87;98.22
12349;BME280;5974;42.710;27.258;2024-02-26T11:28:05;99773.66;;;18.77;98.48
12349;BME280;5974;42.710;27.258;2024-02-26T11:30:36;99769.41;;;18.19;100.00
12349;BME280;5974;42.710;27.258;2024-02-26T11:33:07;99773.16;;;18.28;100.00
12349;BME280;5974;42.710;27.258;2024-02-26T11:35:36;99770.06;;;17.77;100.00
12349;BME280;5974;42.710;27.258;2024-02-26T11:38:03;99771.63;;;17.91;100.00
12349;BME280;5974;42.710;27.258;2024-02-26T11:40:32;99774.19;;;17.57;100.00
12349;BME280;5974;42.710;27.258;2024-02-26T11:42:59;99766.91;;;17.13;100.00
12349;BME280;5974;42.710;27.258;2024-02-26T11:45:48;99762.09;;;17.42;100.00
12349;BME280;5974;42.710;27.258;2024-02-26T11:48:22;99764.25;;;17.72;100.00
12349;BME280;5974;42.710;27.258;2024-02-26T11:50:50;99760.81;;;17.82;100.00
12349;BME280;5974;42.710;27.258;2024-02-26T11:53:25;99758.16;;;17.82;100.00
12349;BME280;5974;42.710;27.258;2024-02-26T11:56:20;99758.41;;;17.79;100.00
12349;BME280;5974;42.710;27.258;2024-02-26T11:58:47;99748.41;;;18.51;100.00
12349;BME280;5974;42.710;27.258;2024-02-26T12:01:38;99753.66;;;18.40;100.00
12349;BME280;5974;42.710;27.258;2024-02-26T12:04:06;99752.25;;;17.79;100.00
12349;BME280;5974;42.710;27.258;2024-02-26T12:06:41;99752.19;;;17.92;100.00
12349;BME280;5974;42.710;27.258;2024-02-26T12:09:09;99747.06;;;17.66;100.00
12349;BME280;5974;42.710;27.258;2024-02-26T12:11:39;99746.38;;;17.75;100.00
12349;BME280;5974;42.710;27.258;2024-02-26T12:14:08;99746.69;;;18.39;100.00
12349;BME280;5974;42.710;27.258;2024-02-26T12:16:36;99741.25;;;18.40;100.00
12349;BME280;5974;42.710;27.258;2024-02-26T12:19:05;99738.19;;;18.58;100.00
12349;BME280;5974;42.710;27.258;2024-02-26T12:21:34;99732.72;;;18.37;100.00
12349;BME280;5974;42.710;27.258;2024-02-26T12:24:13;99739.97;;;18.24;100.00
12349;BME280;5974;42.710;27.258;2024-02-26T12:26:41;99744.25;;;17.92;100.00
12349;BME280;5974;42.710;27.258;2024-02-26T12:29:08;99748.44;;;17.83;100.00
12349;BME280;5974;42.710;27.258;2024-02-26T12:31:35;99743.81;;;17.39;100.00
12349;BME280;5974;42.710;27.258;2024-02-26T12:34:06;99751.81;;;17.26;100.00
12349;BME280;5974;42.710;27.258;2024-02-26T12:36:34;99757.38;;;17.34;100.00
12349;BME280;5974;42.710;27.258;2024-02-26T12:39:03;99752.16;;;17.22;100.00
12349;BME280;5974;42.710;27.258;2024-02-26T12:41:31;99743.31;;;17.34;100.00
12349;BME280;5974;42.710;27.258;2024-02-26T12:43:59;99740.50;;;16.64;100.00
12349;BME280;5974;42.710;27.258;2024-02-26T12:46:26;99759.97;;;16.63;100.00
12349;BME280;5974;42.710;27.258;2024-02-26T12:48:55;99756.19;;;16.30;100.00
12349;BME280;5974;42.710;27.258;2024-02-26T12:51:25;99755.13;;;16.32;100.00
12349;BME280;5974;42.710;27.258;2024-02-26T12:53:53;99752.59;;;16.31;100.00
12349;BME280;5974;42.710;27.258;2024-02-26T12:56:21;99750.06;;;16.29;100.00